sensor_id;sensor_type;location;lat;lon;timestamp;P1;durP1;ratioP1;P2;durP2;ratioP2
22064;SDS011;11197;53.110;8.468;2024-02-21T00:01:25;36.83;;;17.75;;
22064;SDS011;11197;53.110;8.468;2024-02-21T00:03:51;40.15;;;18.27;;
22064;SDS011;11197;53.110;8.468;2024-02-21T00:06:16;36.08;;;18.60;;
22064;SDS011;11197;53.110;8.468;2024-02-21T00:08:42;41.33;;;18.92;;
22064;SDS011;11197;53.110;8.468;2024-02-21T00:11:08;33.55;;;19.00;;
22064;SDS011;11197;53.110;8.468;2024-02-21T00:13:33;37.13;;;20.05;;
22064;SDS011;11197;53.110;8.468;2024-02-21T00:16:00;39.20;;;20.15;;
22064;SDS011;11197;53.110;8.468;2024-02-21T00:18:26;35.22;;;20.27;;
22064;SDS011;11197;53.110;8.468;2024-02-21T00:20:53;37.33;;;20.83;;
22064;SDS011;11197;53.110;8.468;2024-02-21T00:23:18;44.80;;;21.38;;
22064;SDS011;11197;53.110;8.468;2024-02-21T00:25:44;34.88;;;21.15;;
22064;SDS011;11197;53.110;8.468;2024-02-21T00:28:10;45.22;;;22.08;;
22064;SDS011;11197;53.110;8.468;2024-02-21T00:30:36;38.58;;;21.27;;
22064;SDS011;11197;53.110;8.468;2024-02-21T00:33:03;38.28;;;22.05;;
22064;SDS011;11197;53.110;8.468;2024-02-21T00:35:29;37.85;;;21.20;;
22064;SDS011;11197;53.110;8.468;2024-02-21T00:37:55;38.33;;;20.17;;
22064;SDS011;11197;53.110;8.468;2024-02-21T00:40:22;38.38;;;21.33;;
22064;SDS011;11197;53.110;8.468;2024-02-21T00:42:48;39.50;;;20.77;;
22064;SDS011;11197;53.110;8.468;2024-02-21T00:45:14;39.85;;;20.90;;
22064;SDS011;11197;53.110;8.468;2024-02-21T00:47:39;38.15;;;20.20;;
22064;SDS011;11197;53.110;8.468;2024-02-21T00:50:05;44.15;;;20.48;;
22064;SDS011;11197;53.110;8.468;2024-02-21T00:52:32;42.65;;;20.80;;
22064;SDS011;11197;53.110;8.468;2024-02-21T00:54:58;36.78;;;20.75;;
22064;SDS011;11197;53.110;8.468;2024-02-21T00:57:24;37.45;;;19.15;;
22064;SDS011;11197;53.110;8.468;2024-02-21T00:59:51;36.95;;;19.45;;
22064;SDS011;11197;53.110;8.468;2024-02-21T01:02:16;35.17;;;19.83;;
22064;SDS011;11197;53.110;8.468;2024-02-21T01:04:42;39.85;;;20.42;;
22064;SDS011;11197;53.110;8.468;2024-02-21T01:07:08;38.63;;;20.30;;
22064;SDS011;11197;53.110;8.468;2024-02-21T01:09:34;36.88;;;19.60;;
22064;SDS011;11197;53.110;8.468;2024-02-21T01:11:59;35.17;;;19.35;;
22064;SDS011;11197;53.110;8.468;2024-02-21T01:14:25;39.75;;;19.45;;
22064;SDS011;11197;53.110;8.468;2024-02-21T01:16:51;35.92;;;19.65;;
22064;SDS011;11197;53.110;8.468;2024-02-21T01:19:17;36.60;;;20.02;;
22064;SDS011;11197;53.110;8.468;2024-02-21T01:21:42;38.72;;;19.70;;
22064;SDS011;11197;53.110;8.468;2024-02-21T01:24:09;33.20;;;19.05;;
22064;SDS011;11197;53.110;8.468;2024-02-21T01:26:34;38.13;;;19.15;;
22064;SDS011;11197;53.110;8.468;2024-02-21T01:29:00;38.03;;;18.83;;
22064;SDS011;11197;53.110;8.468;2024-02-21T01:31:26;38.60;;;19.42;;
22064;SDS011;11197;53.110;8.468;2024-02-21T01:33:51;38.47;;;19.17;;
22064;SDS011;11197;53.110;8.468;2024-02-21T01:36:17;39.10;;;19.48;;
22064;SDS011;11197;53.110;8.468;2024-02-21T01:38:43;36.03;;;19.23;;
22064;SDS011;11197;53.110;8.468;2024-02-21T01:41:09;35.30;;;18.80;;
22064;SDS011;11197;53.110;8.468;2024-02-21T01:43:34;35.88;;;18.98;;
22064;SDS011;11197;53.110;8.468;2024-02-21T01:46:00;31.50;;;17.75;;
22064;SDS011;11197;53.110;8.468;2024-02-21T01:48:26;37.60;;;19.23;;
22064;SDS011;11197;53.110;8.468;2024-02-21T01:50:54;36.03;;;18.08;;
22064;SDS011;11197;53.110;8.468;2024-02-21T01:53:25;30.95;;;18.02;;
22064;SDS011;11197;53.110;8.468;2024-02-21T01:55:55;35.83;;;18.02;;
22064;SDS011;11197;53.110;8.468;2024-02-21T01:58:20;31.42;;;17.90;;
22064;SDS011;11197;53.110;8.468;2024-02-21T02:00:48;37.70;;;18.08;;
22064;SDS011;11197;53.110;8.468;2024-02-21T02:03:14;32.88;;;18.23;;
22064;SDS011;11197;53.110;8.468;2024-02-21T02:05:43;37.63;;;18.90;;
22064;SDS011;11197;53.110;8.468;2024-02-21T02:08:09;37.30;;;17.98;;
22064;SDS011;11197;53.110;8.468;2024-02-21T02:10:36;37.30;;;17.60;;
22064;SDS011;11197;53.110;8.468;2024-02-21T02:13:02;32.78;;;17.70;;
22064;SDS011;11197;53.110;8.468;2024-02-21T02:15:37;35.00;;;17.70;;
22064;SDS011;11197;53.110;8.468;2024-02-21T02:18:06;34.50;;;17.25;;
22064;SDS011;11197;53.110;8.468;2024-02-21T02:20:32;33.33;;;17.25;;
22064;SDS011;11197;53.110;8.468;2024-02-21T02:22:59;37.83;;;17.95;;
22064;SDS011;11197;53.110;8.468;2024-02-21T02:25:26;32.53;;;17.13;;
22064;SDS011;11197;53.110;8.468;2024-02-21T02:27:53;37.05;;;18.08;;
22064;SDS011;11197;53.110;8.468;2024-02-21T02:30:18;35.95;;;16.75;;
22064;SDS011;11197;53.110;8.468;2024-02-21T02:32:45;32.35;;;16.95;;
22064;SDS011;11197;53.110;8.468;2024-02-21T02:35:11;35.33;;;16.70;;
22064;SDS011;11197;53.110;8.468;2024-02-21T02:37:37;31.48;;;16.50;;
22064;SDS011;11197;53.110;8.468;2024-02-21T02:40:06;27.85;;;15.25;;
22064;SDS011;11197;53.110;8.468;2024-02-21T02:42:32;29.92;;;16.33;;
22064;SDS011;11197;53.110;8.468;2024-02-21T02:44:58;33.35;;;16.90;;
22064;SDS011;11197;53.110;8.468;2024-02-21T02:47:24;29.33;;;16.00;;
22064;SDS011;11197;53.110;8.468;2024-02-21T02:49:49;31.77;;;16.63;;
22064;SDS011;11197;53.110;8.468;2024-02-21T02:52:16;33.58;;;16.65;;
22064;SDS011;11197;53.110;8.468;2024-02-21T02:54:43;35.42;;;16.60;;
22064;SDS011;11197;53.110;8.468;2024-02-21T02:57:09;37.10;;;16.90;;
22064;SDS011;11197;53.110;8.468;2024-02-21T02:59:35;34.38;;;16.67;;
22064;SDS011;11197;53.110;8.468;2024-02-21T03:02:00;35.97;;;16.90;;
22064;SDS011;11197;53.110;8.468;2024-02-21T03:04:26;35.17;;;17.45;;
22064;SDS011;11197;53.110;8.468;2024-02-21T03:06:52;33.97;;;17.05;;
22064;SDS011;11197;53.110;8.468;2024-02-21T03:09:18;33.05;;;17.35;;
22064;SDS011;11197;53.110;8.468;2024-02-21T03:11:44;31.20;;;16.67;;
22064;SDS011;11197;53.110;8.468;2024-02-21T03:14:10;33.83;;;17.55;;
22064;SDS011;11197;53.110;8.468;2024-02-21T03:16:36;37.80;;;17.90;;
22064;SDS011;11197;53.110;8.468;2024-02-21T03:19:01;34.53;;;17.17;;
22064;SDS011;11197;53.110;8.468;2024-02-21T03:21:28;38.28;;;17.85;;
22064;SDS011;11197;53.110;8.468;2024-02-21T03:23:54;31.48;;;17.08;;
22064;SDS011;11197;53.110;8.468;2024-02-21T03:26:19;34.00;;;17.10;;
22064;SDS011;11197;53.110;8.468;2024-02-21T03:28:45;32.88;;;17.73;;
22064;SDS011;11197;53.110;8.468;2024-02-21T03:31:11;31.95;;;18.02;;
22064;SDS011;11197;53.110;8.468;2024-02-21T03:33:39;31.60;;;17.17;;
22064;SDS011;11197;53.110;8.468;2024-02-21T03:36:12;33.83;;;18.50;;
22064;SDS011;11197;53.110;8.468;2024-02-21T03:38:39;37.67;;;18.17;;
22064;SDS011;11197;53.110;8.468;2024-02-21T03:41:05;35.65;;;18.40;;
22064;SDS011;11197;53.110;8.468;2024-02-21T03:43:31;32.05;;;17.80;;
22064;SDS011;11197;53.110;8.468;2024-02-21T03:45:56;35.63;;;18.90;;
22064;SDS011;11197;53.110;8.468;2024-02-21T03:48:22;34.83;;;19.50;;
22064;SDS011;11197;53.110;8.468;2024-02-21T03:50:48;33.58;;;17.98;;
22064;SDS011;11197;53.110;8.468;2024-02-21T03:53:14;33.95;;;18.55;;
22064;SDS011;11197;53.110;8.468;2024-02-21T03:55:39;36.50;;;18.42;;
22064;SDS011;11197;53.110;8.468;2024-02-21T03:58:05;31.35;;;17.80;;
22064;SDS011;11197;53.110;8.468;2024-02-21T04:00:31;30.15;;;17.55;;
22064;SDS011;11197;53.110;8.468;2024-02-21T04:02:56;31.30;;;18.67;;
22064;SDS011;11197;53.110;8.468;2024-02-21T04:05:22;33.30;;;17.45;;
22064;SDS011;11197;53.110;8.468;2024-02-21T04:07:48;33.17;;;17.67;;
22064;SDS011;11197;53.110;8.468;2024-02-21T04:10:14;31.40;;;17.45;;
22064;SDS011;11197;53.110;8.468;2024-02-21T04:12:39;30.25;;;16.77;;
22064;SDS011;11197;53.110;8.468;2024-02-21T04:15:05;24.45;;;15.38;;
22064;SDS011;11197;53.110;8.468;2024-02-21T04:17:31;26.08;;;15.88;;
22064;SDS011;11197;53.110;8.468;2024-02-21T04:20:03;26.83;;;16.15;;
22064;SDS011;11197;53.110;8.468;2024-02-21T04:22:48;29.67;;;15.77;;
22064;SDS011;11197;53.110;8.468;2024-02-21T04:25:14;25.75;;;15.52;;
22064;SDS011;11197;53.110;8.468;2024-02-21T04:27:40;24.42;;;15.38;;
22064;SDS011;11197;53.110;8.468;2024-02-21T04:30:06;25.23;;;14.93;;
22064;SDS011;11197;53.110;8.468;2024-02-21T04:32:32;21.77;;;14.27;;
22064;SDS011;11197;53.110;8.468;2024-02-21T04:34:58;22.58;;;14.93;;
22064;SDS011;11197;53.110;8.468;2024-02-21T04:37:24;21.20;;;13.98;;
22064;SDS011;11197;53.110;8.468;2024-02-21T04:39:50;22.42;;;14.02;;
22064;SDS011;11197;53.110;8.468;2024-02-21T04:42:16;21.30;;;13.55;;
22064;SDS011;11197;53.110;8.468;2024-02-21T04:44:42;20.27;;;13.32;;
22064;SDS011;11197;53.110;8.468;2024-02-21T04:47:08;23.20;;;13.68;;
22064;SDS011;11197;53.110;8.468;2024-02-21T04:49:34;20.50;;;13.27;;
22064;SDS011;11197;53.110;8.468;2024-02-21T04:52:00;20.92;;;13.07;;
22064;SDS011;11197;53.110;8.468;2024-02-21T04:54:26;18.48;;;12.77;;
22064;SDS011;11197;53.110;8.468;2024-02-21T04:56:52;20.30;;;12.80;;
22064;SDS011;11197;53.110;8.468;2024-02-21T04:59:18;19.00;;;11.73;;
22064;SDS011;11197;53.110;8.468;2024-02-21T05:01:44;18.73;;;12.73;;
22064;SDS011;11197;53.110;8.468;2024-02-21T05:04:09;16.85;;;11.40;;
22064;SDS011;11197;53.110;8.468;2024-02-21T05:06:38;17.92;;;12.30;;
22064;SDS011;11197;53.110;8.468;2024-02-21T05:09:05;19.83;;;11.95;;
22064;SDS011;11197;53.110;8.468;2024-02-21T05:11:31;15.63;;;10.68;;
22064;SDS011;11197;53.110;8.468;2024-02-21T05:13:57;16.70;;;11.40;;
22064;SDS011;11197;53.110;8.468;2024-02-21T05:16:22;19.10;;;11.30;;
22064;SDS011;11197;53.110;8.468;2024-02-21T05:18:48;15.55;;;10.50;;
22064;SDS011;11197;53.110;8.468;2024-02-21T05:21:14;15.00;;;10.68;;
22064;SDS011;11197;53.110;8.468;2024-02-21T05:23:40;13.70;;;9.80;;
22064;SDS011;11197;53.110;8.468;2024-02-21T05:26:06;16.58;;;10.32;;
22064;SDS011;11197;53.110;8.468;2024-02-21T05:28:32;14.95;;;10.55;;
22064;SDS011;11197;53.110;8.468;2024-02-21T05:30:58;16.08;;;10.65;;
22064;SDS011;11197;53.110;8.468;2024-02-21T05:33:24;15.15;;;10.25;;
22064;SDS011;11197;53.110;8.468;2024-02-21T05:35:50;14.25;;;10.35;;
22064;SDS011;11197;53.110;8.468;2024-02-21T05:38:16;14.23;;;10.30;;
22064;SDS011;11197;53.110;8.468;2024-02-21T05:40:42;14.85;;;10.30;;
22064;SDS011;11197;53.110;8.468;2024-02-21T05:43:09;13.07;;;9.85;;
22064;SDS011;11197;53.110;8.468;2024-02-21T05:45:35;15.30;;;10.15;;
22064;SDS011;11197;53.110;8.468;2024-02-21T05:48:03;14.63;;;9.88;;
22064;SDS011;11197;53.110;8.468;2024-02-21T05:50:29;15.98;;;10.00;;
22064;SDS011;11197;53.110;8.468;2024-02-21T05:52:55;15.43;;;10.30;;
22064;SDS011;11197;53.110;8.468;2024-02-21T05:55:21;13.75;;;9.77;;
22064;SDS011;11197;53.110;8.468;2024-02-21T05:57:47;12.55;;;9.93;;
22064;SDS011;11197;53.110;8.468;2024-02-21T06:00:13;15.07;;;9.95;;
22064;SDS011;11197;53.110;8.468;2024-02-21T06:02:40;14.02;;;10.18;;
22064;SDS011;11197;53.110;8.468;2024-02-21T06:05:06;15.27;;;9.98;;
22064;SDS011;11197;53.110;8.468;2024-02-21T06:07:33;17.98;;;10.80;;
22064;SDS011;11197;53.110;8.468;2024-02-21T06:10:02;14.35;;;10.43;;
22064;SDS011;11197;53.110;8.468;2024-02-21T06:12:28;14.73;;;10.57;;
22064;SDS011;11197;53.110;8.468;2024-02-21T06:14:54;15.63;;;11.38;;
22064;SDS011;11197;53.110;8.468;2024-02-21T06:17:19;15.70;;;10.55;;
22064;SDS011;11197;53.110;8.468;2024-02-21T06:19:45;18.33;;;11.45;;
22064;SDS011;11197;53.110;8.468;2024-02-21T06:22:11;14.30;;;10.60;;
22064;SDS011;11197;53.110;8.468;2024-02-21T06:24:37;14.98;;;10.75;;
22064;SDS011;11197;53.110;8.468;2024-02-21T06:27:04;16.25;;;11.70;;
22064;SDS011;11197;53.110;8.468;2024-02-21T06:29:31;15.65;;;11.13;;
22064;SDS011;11197;53.110;8.468;2024-02-21T06:31:57;14.85;;;10.85;;
22064;SDS011;11197;53.110;8.468;2024-02-21T06:34:23;18.60;;;11.80;;
22064;SDS011;11197;53.110;8.468;2024-02-21T06:36:49;16.77;;;11.38;;
22064;SDS011;11197;53.110;8.468;2024-02-21T06:39:16;15.38;;;11.18;;
22064;SDS011;11197;53.110;8.468;2024-02-21T06:41:42;16.73;;;11.88;;
22064;SDS011;11197;53.110;8.468;2024-02-21T06:44:08;16.65;;;12.20;;
22064;SDS011;11197;53.110;8.468;2024-02-21T06:46:34;17.27;;;12.55;;
22064;SDS011;11197;53.110;8.468;2024-02-21T06:49:00;18.75;;;12.40;;
22064;SDS011;11197;53.110;8.468;2024-02-21T06:51:26;17.40;;;12.30;;
22064;SDS011;11197;53.110;8.468;2024-02-21T06:53:53;19.17;;;12.70;;
22064;SDS011;11197;53.110;8.468;2024-02-21T06:56:19;19.30;;;12.40;;
22064;SDS011;11197;53.110;8.468;2024-02-21T06:58:45;18.77;;;12.93;;
22064;SDS011;11197;53.110;8.468;2024-02-21T07:01:11;18.55;;;12.35;;
22064;SDS011;11197;53.110;8.468;2024-02-21T07:03:37;20.27;;;13.13;;
22064;SDS011;11197;53.110;8.468;2024-02-21T07:06:03;22.27;;;13.98;;
22064;SDS011;11197;53.110;8.468;2024-02-21T07:08:29;23.55;;;14.18;;
22064;SDS011;11197;53.110;8.468;2024-02-21T07:10:55;22.42;;;14.23;;
22064;SDS011;11197;53.110;8.468;2024-02-21T07:13:20;22.60;;;14.45;;
22064;SDS011;11197;53.110;8.468;2024-02-21T07:15:48;23.05;;;15.40;;
22064;SDS011;11197;53.110;8.468;2024-02-21T07:18:14;29.17;;;15.57;;
22064;SDS011;11197;53.110;8.468;2024-02-21T07:20:39;31.40;;;15.80;;
22064;SDS011;11197;53.110;8.468;2024-02-21T07:23:06;23.52;;;15.55;;
22064;SDS011;11197;53.110;8.468;2024-02-21T07:25:33;27.83;;;16.83;;
22064;SDS011;11197;53.110;8.468;2024-02-21T07:27:59;27.88;;;17.75;;
22064;SDS011;11197;53.110;8.468;2024-02-21T07:30:25;33.08;;;17.60;;
22064;SDS011;11197;53.110;8.468;2024-02-21T07:32:51;32.58;;;18.27;;
22064;SDS011;11197;53.110;8.468;2024-02-21T07:35:20;32.50;;;17.90;;
22064;SDS011;11197;53.110;8.468;2024-02-21T07:37:45;33.50;;;18.40;;
22064;SDS011;11197;53.110;8.468;2024-02-21T07:40:15;32.75;;;16.95;;
22064;SDS011;11197;53.110;8.468;2024-02-21T07:42:42;33.90;;;17.35;;
22064;SDS011;11197;53.110;8.468;2024-02-21T07:45:08;34.55;;;16.92;;
22064;SDS011;11197;53.110;8.468;2024-02-21T07:47:35;27.98;;;16.95;;
22064;SDS011;11197;53.110;8.468;2024-02-21T07:50:01;33.85;;;17.67;;
22064;SDS011;11197;53.110;8.468;2024-02-21T07:52:28;31.35;;;16.50;;
22064;SDS011;11197;53.110;8.468;2024-02-21T07:54:54;35.30;;;17.23;;
22064;SDS011;11197;53.110;8.468;2024-02-21T07:57:19;30.83;;;16.70;;
22064;SDS011;11197;53.110;8.468;2024-02-21T07:59:45;32.03;;;17.20;;
22064;SDS011;11197;53.110;8.468;2024-02-21T08:02:13;31.75;;;17.70;;
22064;SDS011;11197;53.110;8.468;2024-02-21T08:04:42;36.42;;;18.15;;
22064;SDS011;11197;53.110;8.468;2024-02-21T08:07:08;34.75;;;18.08;;
22064;SDS011;11197;53.110;8.468;2024-02-21T08:09:34;36.35;;;18.75;;
22064;SDS011;11197;53.110;8.468;2024-02-21T08:12:01;36.78;;;18.75;;
22064;SDS011;11197;53.110;8.468;2024-02-21T08:14:27;36.13;;;19.13;;
22064;SDS011;11197;53.110;8.468;2024-02-21T08:16:53;36.45;;;20.17;;
22064;SDS011;11197;53.110;8.468;2024-02-21T08:19:20;34.30;;;19.33;;
22064;SDS011;11197;53.110;8.468;2024-02-21T08:21:47;39.28;;;20.23;;
22064;SDS011;11197;53.110;8.468;2024-02-21T08:24:16;33.90;;;20.02;;
22064;SDS011;11197;53.110;8.468;2024-02-21T08:26:42;39.78;;;20.98;;
22064;SDS011;11197;53.110;8.468;2024-02-21T08:29:11;38.70;;;21.60;;
22064;SDS011;11197;53.110;8.468;2024-02-21T08:31:37;33.65;;;20.65;;
22064;SDS011;11197;53.110;8.468;2024-02-21T08:34:03;32.97;;;19.88;;
22064;SDS011;11197;53.110;8.468;2024-02-21T08:36:37;38.05;;;19.63;;
22064;SDS011;11197;53.110;8.468;2024-02-21T08:39:06;36.88;;;19.48;;
22064;SDS011;11197;53.110;8.468;2024-02-21T08:41:32;31.70;;;18.98;;
22064;SDS011;11197;53.110;8.468;2024-02-21T08:43:59;35.83;;;19.38;;
22064;SDS011;11197;53.110;8.468;2024-02-21T08:46:25;37.55;;;19.63;;
22064;SDS011;11197;53.110;8.468;2024-02-21T08:48:51;35.88;;;19.40;;
22064;SDS011;11197;53.110;8.468;2024-02-21T08:51:18;36.45;;;19.60;;
22064;SDS011;11197;53.110;8.468;2024-02-21T08:53:47;32.28;;;19.35;;
22064;SDS011;11197;53.110;8.468;2024-02-21T08:56:14;37.03;;;19.27;;
22064;SDS011;11197;53.110;8.468;2024-02-21T08:58:40;33.25;;;18.90;;
22064;SDS011;11197;53.110;8.468;2024-02-21T09:01:06;34.45;;;18.63;;
22064;SDS011;11197;53.110;8.468;2024-02-21T09:03:36;34.80;;;18.83;;
22064;SDS011;11197;53.110;8.468;2024-02-21T09:06:02;32.65;;;18.20;;
22064;SDS011;11197;53.110;8.468;2024-02-21T09:08:32;30.05;;;18.23;;
22064;SDS011;11197;53.110;8.468;2024-02-21T09:10:58;32.65;;;18.08;;
22064;SDS011;11197;53.110;8.468;2024-02-21T09:13:24;34.58;;;18.98;;
22064;SDS011;11197;53.110;8.468;2024-02-21T09:15:50;32.35;;;18.23;;
22064;SDS011;11197;53.110;8.468;2024-02-21T09:18:16;31.48;;;18.05;;
22064;SDS011;11197;53.110;8.468;2024-02-21T09:20:42;31.70;;;18.23;;
22064;SDS011;11197;53.110;8.468;2024-02-21T09:23:08;32.63;;;18.02;;
22064;SDS011;11197;53.110;8.468;2024-02-21T09:25:34;31.67;;;19.15;;
22064;SDS011;11197;53.110;8.468;2024-02-21T09:28:01;36.17;;;21.13;;
22064;SDS011;11197;53.110;8.468;2024-02-21T09:30:27;35.42;;;20.17;;
22064;SDS011;11197;53.110;8.468;2024-02-21T09:32:53;39.88;;;21.60;;
22064;SDS011;11197;53.110;8.468;2024-02-21T09:35:19;35.60;;;21.42;;
22064;SDS011;11197;53.110;8.468;2024-02-21T09:37:47;36.83;;;20.83;;
22064;SDS011;11197;53.110;8.468;2024-02-21T09:40:15;34.20;;;21.00;;
22064;SDS011;11197;53.110;8.468;2024-02-21T09:42:44;35.60;;;20.35;;
22064;SDS011;11197;53.110;8.468;2024-02-21T09:47:54;33.80;;;18.73;;
22064;SDS011;11197;53.110;8.468;2024-02-21T09:50:28;34.67;;;19.75;;
22064;SDS011;11197;53.110;8.468;2024-02-21T09:52:56;36.35;;;18.52;;
22064;SDS011;11197;53.110;8.468;2024-02-21T09:55:24;33.80;;;17.25;;
22064;SDS011;11197;53.110;8.468;2024-02-21T09:57:52;30.80;;;17.52;;
22064;SDS011;11197;53.110;8.468;2024-02-21T10:00:19;29.52;;;17.30;;
22064;SDS011;11197;53.110;8.468;2024-02-21T10:02:47;32.22;;;17.60;;
22064;SDS011;11197;53.110;8.468;2024-02-21T10:05:14;30.50;;;16.25;;
22064;SDS011;11197;53.110;8.468;2024-02-21T10:07:40;31.50;;;16.80;;
22064;SDS011;11197;53.110;8.468;2024-02-21T10:10:06;32.50;;;17.02;;
22064;SDS011;11197;53.110;8.468;2024-02-21T10:12:33;28.67;;;15.48;;
22064;SDS011;11197;53.110;8.468;2024-02-21T10:15:05;28.52;;;15.50;;
22064;SDS011;11197;53.110;8.468;2024-02-21T10:17:32;27.80;;;14.85;;
22064;SDS011;11197;53.110;8.468;2024-02-21T10:20:10;28.50;;;15.40;;
22064;SDS011;11197;53.110;8.468;2024-02-21T10:22:37;25.98;;;14.82;;
22064;SDS011;11197;53.110;8.468;2024-02-21T10:25:11;26.58;;;14.60;;
22064;SDS011;11197;53.110;8.468;2024-02-21T10:27:38;25.33;;;15.18;;
22064;SDS011;11197;53.110;8.468;2024-02-21T10:30:07;24.20;;;14.77;;
22064;SDS011;11197;53.110;8.468;2024-02-21T10:32:48;26.77;;;15.05;;
22064;SDS011;11197;53.110;8.468;2024-02-21T10:35:30;25.40;;;14.02;;
22064;SDS011;11197;53.110;8.468;2024-02-21T10:37:57;30.48;;;14.75;;
22064;SDS011;11197;53.110;8.468;2024-02-21T10:40:24;25.73;;;14.93;;
22064;SDS011;11197;53.110;8.468;2024-02-21T10:42:52;25.70;;;13.85;;
22064;SDS011;11197;53.110;8.468;2024-02-21T10:45:31;23.83;;;13.85;;
22064;SDS011;11197;53.110;8.468;2024-02-21T10:50:39;26.13;;;14.18;;
22064;SDS011;11197;53.110;8.468;2024-02-21T10:53:16;23.65;;;13.00;;
22064;SDS011;11197;53.110;8.468;2024-02-21T10:55:55;26.65;;;13.80;;
22064;SDS011;11197;53.110;8.468;2024-02-21T10:58:26;23.83;;;13.60;;
22064;SDS011;11197;53.110;8.468;2024-02-21T11:00:55;25.08;;;13.55;;
22064;SDS011;11197;53.110;8.468;2024-02-21T11:03:21;22.90;;;13.82;;
22064;SDS011;11197;53.110;8.468;2024-02-21T11:05:47;26.08;;;13.75;;
22064;SDS011;11197;53.110;8.468;2024-02-21T11:08:14;21.83;;;13.27;;
22064;SDS011;11197;53.110;8.468;2024-02-21T11:10:40;24.98;;;13.88;;
22064;SDS011;11197;53.110;8.468;2024-02-21T11:13:11;22.25;;;13.77;;
22064;SDS011;11197;53.110;8.468;2024-02-21T11:15:38;25.10;;;13.55;;
22064;SDS011;11197;53.110;8.468;2024-02-21T11:18:04;25.70;;;13.05;;
22064;SDS011;11197;53.110;8.468;2024-02-21T11:20:37;24.50;;;12.95;;
22064;SDS011;11197;53.110;8.468;2024-02-21T11:23:03;20.17;;;12.48;;
22064;SDS011;11197;53.110;8.468;2024-02-21T11:25:29;20.88;;;12.20;;
22064;SDS011;11197;53.110;8.468;2024-02-21T11:28:04;21.83;;;12.18;;
22064;SDS011;11197;53.110;8.468;2024-02-21T11:30:32;22.75;;;11.43;;
22064;SDS011;11197;53.110;8.468;2024-02-21T11:33:05;22.85;;;11.70;;
22064;SDS011;11197;53.110;8.468;2024-02-21T11:35:32;21.52;;;11.48;;
22064;SDS011;11197;53.110;8.468;2024-02-21T11:38:09;20.63;;;10.75;;
22064;SDS011;11197;53.110;8.468;2024-02-21T11:40:38;21.13;;;11.43;;
22064;SDS011;11197;53.110;8.468;2024-02-21T11:43:05;18.75;;;10.73;;
22064;SDS011;11197;53.110;8.468;2024-02-21T11:45:31;19.48;;;11.00;;
22064;SDS011;11197;53.110;8.468;2024-02-21T11:47:58;19.35;;;9.73;;
22064;SDS011;11197;53.110;8.468;2024-02-21T11:50:26;15.80;;;9.77;;
22064;SDS011;11197;53.110;8.468;2024-02-21T11:52:54;16.15;;;9.55;;
22064;SDS011;11197;53.110;8.468;2024-02-21T11:55:20;16.83;;;8.95;;
22064;SDS011;11197;53.110;8.468;2024-02-21T11:57:50;18.38;;;9.10;;
22064;SDS011;11197;53.110;8.468;2024-02-21T12:00:16;14.20;;;8.65;;
22064;SDS011;11197;53.110;8.468;2024-02-21T12:02:45;17.38;;;8.95;;
22064;SDS011;11197;53.110;8.468;2024-02-21T12:05:11;17.50;;;8.57;;
22064;SDS011;11197;53.110;8.468;2024-02-21T12:07:37;17.20;;;8.05;;
22064;SDS011;11197;53.110;8.468;2024-02-21T12:10:09;14.63;;;7.88;;
22064;SDS011;11197;53.110;8.468;2024-02-21T12:12:36;14.38;;;7.90;;
22064;SDS011;11197;53.110;8.468;2024-02-21T12:15:06;15.90;;;7.70;;
22064;SDS011;11197;53.110;8.468;2024-02-21T12:17:33;14.10;;;7.03;;
22064;SDS011;11197;53.110;8.468;2024-02-21T12:20:05;15.02;;;7.55;;
22064;SDS011;11197;53.110;8.468;2024-02-21T12:22:43;15.32;;;6.80;;
22064;SDS011;11197;53.110;8.468;2024-02-21T12:25:18;14.32;;;6.47;;
22064;SDS011;11197;53.110;8.468;2024-02-21T12:27:45;19.02;;;6.90;;
22064;SDS011;11197;53.110;8.468;2024-02-21T12:30:11;11.00;;;6.60;;
22064;SDS011;11197;53.110;8.468;2024-02-21T12:32:37;11.70;;;6.68;;
22064;SDS011;11197;53.110;8.468;2024-02-21T12:35:03;12.65;;;7.05;;
22064;SDS011;11197;53.110;8.468;2024-02-21T12:37:29;12.07;;;6.22;;
22064;SDS011;11197;53.110;8.468;2024-02-21T12:39:55;12.13;;;6.20;;
22064;SDS011;11197;53.110;8.468;2024-02-21T12:42:20;16.27;;;6.20;;
22064;SDS011;11197;53.110;8.468;2024-02-21T12:44:48;12.85;;;5.90;;
22064;SDS011;11197;53.110;8.468;2024-02-21T12:47:14;11.50;;;5.47;;
22064;SDS011;11197;53.110;8.468;2024-02-21T12:49:40;13.98;;;6.00;;
22064;SDS011;11197;53.110;8.468;2024-02-21T12:52:06;13.85;;;5.57;;
22064;SDS011;11197;53.110;8.468;2024-02-21T12:54:32;10.10;;;5.55;;
22064;SDS011;11197;53.110;8.468;2024-02-21T12:56:59;12.35;;;5.43;;
22064;SDS011;11197;53.110;8.468;2024-02-21T12:59:27;11.30;;;5.68;;
22064;SDS011;11197;53.110;8.468;2024-02-21T13:01:54;12.45;;;5.70;;
22064;SDS011;11197;53.110;8.468;2024-02-21T13:04:20;10.00;;;5.35;;
22064;SDS011;11197;53.110;8.468;2024-02-21T13:06:48;11.38;;;5.55;;
22064;SDS011;11197;53.110;8.468;2024-02-21T13:09:16;9.05;;;5.38;;
22064;SDS011;11197;53.110;8.468;2024-02-21T13:11:43;9.35;;;5.35;;
22064;SDS011;11197;53.110;8.468;2024-02-21T13:14:12;12.88;;;5.57;;
22064;SDS011;11197;53.110;8.468;2024-02-21T13:16:37;12.07;;;6.00;;
22064;SDS011;11197;53.110;8.468;2024-02-21T13:19:06;9.88;;;5.55;;
22064;SDS011;11197;53.110;8.468;2024-02-21T13:21:35;13.75;;;5.75;;
22064;SDS011;11197;53.110;8.468;2024-02-21T13:24:01;10.10;;;5.63;;
22064;SDS011;11197;53.110;8.468;2024-02-21T13:26:27;9.95;;;5.57;;
22064;SDS011;11197;53.110;8.468;2024-02-21T13:28:53;11.73;;;5.50;;
22064;SDS011;11197;53.110;8.468;2024-02-21T13:31:19;12.98;;;5.40;;
22064;SDS011;11197;53.110;8.468;2024-02-21T13:33:46;10.25;;;5.38;;
22064;SDS011;11197;53.110;8.468;2024-02-21T13:36:11;10.65;;;5.38;;
22064;SDS011;11197;53.110;8.468;2024-02-21T13:38:38;9.68;;;5.43;;
22064;SDS011;11197;53.110;8.468;2024-02-21T13:41:04;9.55;;;5.20;;
22064;SDS011;11197;53.110;8.468;2024-02-21T13:43:31;13.45;;;5.43;;
22064;SDS011;11197;53.110;8.468;2024-02-21T13:45:58;10.68;;;5.20;;
22064;SDS011;11197;53.110;8.468;2024-02-21T13:48:25;11.00;;;5.70;;
22064;SDS011;11197;53.110;8.468;2024-02-21T13:50:52;11.88;;;6.40;;
22064;SDS011;11197;53.110;8.468;2024-02-21T13:53:17;11.38;;;6.90;;
22064;SDS011;11197;53.110;8.468;2024-02-21T13:55:46;12.07;;;7.45;;
22064;SDS011;11197;53.110;8.468;2024-02-21T13:58:12;12.13;;;7.57;;
22064;SDS011;11197;53.110;8.468;2024-02-21T14:00:39;12.52;;;8.07;;
22064;SDS011;11197;53.110;8.468;2024-02-21T14:03:05;13.45;;;8.43;;
22064;SDS011;11197;53.110;8.468;2024-02-21T14:05:30;16.45;;;9.93;;
22064;SDS011;11197;53.110;8.468;2024-02-21T14:07:56;14.70;;;10.35;;
22064;SDS011;11197;53.110;8.468;2024-02-21T14:10:22;15.60;;;10.00;;
22064;SDS011;11197;53.110;8.468;2024-02-21T14:12:48;17.02;;;11.15;;
22064;SDS011;11197;53.110;8.468;2024-02-21T14:15:14;14.77;;;10.82;;
22064;SDS011;11197;53.110;8.468;2024-02-21T14:17:41;16.08;;;11.18;;
22064;SDS011;11197;53.110;8.468;2024-02-21T14:20:08;18.88;;;11.43;;
22064;SDS011;11197;53.110;8.468;2024-02-21T14:22:34;17.27;;;11.77;;
22064;SDS011;11197;53.110;8.468;2024-02-21T14:25:02;14.43;;;11.25;;
22064;SDS011;11197;53.110;8.468;2024-02-21T14:27:30;17.27;;;11.35;;